sensor_id;sensor_type;location;lat;lon;timestamp;P1;durP1;ratioP1;P2;durP2;ratioP2
20844;SDS011;10583;49.084;8.646;2024-02-15T00:02:15;1.60;;;1.60;;
20844;SDS011;10583;49.084;8.646;2024-02-15T00:04:44;1.20;;;1.20;;
20844;SDS011;10583;49.084;8.646;2024-02-15T00:07:11;1.73;;;1.73;;
20844;SDS011;10583;49.084;8.646;2024-02-15T00:09:38;1.50;;;1.50;;
20844;SDS011;10583;49.084;8.646;2024-02-15T00:12:05;1.30;;;1.30;;
20844;SDS011;10583;49.084;8.646;2024-02-15T00:14:33;1.30;;;1.30;;
20844;SDS011;10583;49.084;8.646;2024-02-15T00:17:00;1.53;;;1.53;;
20844;SDS011;10583;49.084;8.646;2024-02-15T00:19:27;1.20;;;1.20;;
20844;SDS011;10583;49.084;8.646;2024-02-15T00:21:57;1.20;;;1.20;;
20844;SDS011;10583;49.084;8.646;2024-02-15T00:24:24;1.57;;;1.57;;
20844;SDS011;10583;49.084;8.646;2024-02-15T00:26:52;1.23;;;1.23;;
20844;SDS011;10583;49.084;8.646;2024-02-15T00:29:19;1.60;;;1.60;;
20844;SDS011;10583;49.084;8.646;2024-02-15T00:31:46;1.27;;;1.27;;
20844;SDS011;10583;49.084;8.646;2024-02-15T00:34:13;1.50;;;1.50;;
20844;SDS011;10583;49.084;8.646;2024-02-15T00:36:42;1.53;;;1.53;;
20844;SDS011;10583;49.084;8.646;2024-02-15T00:39:11;1.70;;;1.70;;
20844;SDS011;10583;49.084;8.646;2024-02-15T00:41:39;1.93;;;1.93;;
20844;SDS011;10583;49.084;8.646;2024-02-15T00:44:07;1.80;;;1.80;;
20844;SDS011;10583;49.084;8.646;2024-02-15T00:46:35;1.40;;;1.40;;
20844;SDS011;10583;49.084;8.646;2024-02-15T00:49:02;1.60;;;1.60;;
20844;SDS011;10583;49.084;8.646;2024-02-15T00:51:31;1.80;;;1.80;;
20844;SDS011;10583;49.084;8.646;2024-02-15T00:53:59;1.80;;;1.80;;
20844;SDS011;10583;49.084;8.646;2024-02-15T00:56:28;1.37;;;1.37;;
20844;SDS011;10583;49.084;8.646;2024-02-15T00:58:56;1.50;;;1.50;;
20844;SDS011;10583;49.084;8.646;2024-02-15T01:01:25;1.40;;;1.40;;
20844;SDS011;10583;49.084;8.646;2024-02-15T01:03:52;1.50;;;1.50;;
20844;SDS011;10583;49.084;8.646;2024-02-15T01:06:19;1.70;;;1.70;;
20844;SDS011;10583;49.084;8.646;2024-02-15T01:08:47;1.83;;;1.83;;
20844;SDS011;10583;49.084;8.646;2024-02-15T01:11:14;1.77;;;1.77;;
20844;SDS011;10583;49.084;8.646;2024-02-15T01:13:43;1.63;;;1.63;;
20844;SDS011;10583;49.084;8.646;2024-02-15T01:16:10;2.10;;;2.10;;
20844;SDS011;10583;49.084;8.646;2024-02-15T01:18:37;1.70;;;1.70;;
20844;SDS011;10583;49.084;8.646;2024-02-15T01:21:04;1.50;;;1.50;;
20844;SDS011;10583;49.084;8.646;2024-02-15T01:23:31;1.87;;;1.87;;
20844;SDS011;10583;49.084;8.646;2024-02-15T01:26:00;1.70;;;1.70;;
20844;SDS011;10583;49.084;8.646;2024-02-15T01:28:27;1.60;;;1.60;;
20844;SDS011;10583;49.084;8.646;2024-02-15T01:30:55;1.90;;;1.90;;
20844;SDS011;10583;49.084;8.646;2024-02-15T01:33:22;1.47;;;1.47;;
20844;SDS011;10583;49.084;8.646;2024-02-15T01:35:49;1.70;;;1.70;;
20844;SDS011;10583;49.084;8.646;2024-02-15T01:38:16;1.60;;;1.60;;
20844;SDS011;10583;49.084;8.646;2024-02-15T01:40:43;1.60;;;1.60;;
20844;SDS011;10583;49.084;8.646;2024-02-15T01:43:12;1.80;;;1.80;;
20844;SDS011;10583;49.084;8.646;2024-02-15T01:45:40;1.70;;;1.70;;
20844;SDS011;10583;49.084;8.646;2024-02-15T01:48:09;1.50;;;1.50;;
20844;SDS011;10583;49.084;8.646;2024-02-15T01:50:36;1.47;;;1.47;;
20844;SDS011;10583;49.084;8.646;2024-02-15T01:53:04;1.60;;;1.60;;
20844;SDS011;10583;49.084;8.646;2024-02-15T01:55:33;1.50;;;1.50;;
20844;SDS011;10583;49.084;8.646;2024-02-15T01:58:00;1.33;;;1.33;;
20844;SDS011;10583;49.084;8.646;2024-02-15T02:00:27;1.40;;;1.40;;
20844;SDS011;10583;49.084;8.646;2024-02-15T02:02:56;1.57;;;1.57;;
20844;SDS011;10583;49.084;8.646;2024-02-15T02:05:29;1.87;;;1.87;;
20844;SDS011;10583;49.084;8.646;2024-02-15T02:07:57;1.60;;;1.60;;
20844;SDS011;10583;49.084;8.646;2024-02-15T02:10:26;1.47;;;1.47;;
20844;SDS011;10583;49.084;8.646;2024-02-15T02:12:57;1.40;;;1.40;;
20844;SDS011;10583;49.084;8.646;2024-02-15T02:15:26;1.57;;;1.57;;
20844;SDS011;10583;49.084;8.646;2024-02-15T02:17:54;1.63;;;1.63;;
20844;SDS011;10583;49.084;8.646;2024-02-15T02:20:20;1.47;;;1.47;;
20844;SDS011;10583;49.084;8.646;2024-02-15T02:22:49;1.67;;;1.67;;
20844;SDS011;10583;49.084;8.646;2024-02-15T02:25:21;1.50;;;1.50;;
20844;SDS011;10583;49.084;8.646;2024-02-15T02:27:51;1.60;;;1.60;;
20844;SDS011;10583;49.084;8.646;2024-02-15T02:30:19;2.07;;;2.07;;
20844;SDS011;10583;49.084;8.646;2024-02-15T02:32:47;1.70;;;1.70;;
20844;SDS011;10583;49.084;8.646;2024-02-15T02:35:14;1.83;;;1.83;;
20844;SDS011;10583;49.084;8.646;2024-02-15T02:37:42;1.90;;;1.90;;
20844;SDS011;10583;49.084;8.646;2024-02-15T02:40:09;1.80;;;1.80;;
20844;SDS011;10583;49.084;8.646;2024-02-15T02:42:47;1.77;;;1.77;;
20844;SDS011;10583;49.084;8.646;2024-02-15T02:45:15;1.50;;;1.50;;
20844;SDS011;10583;49.084;8.646;2024-02-15T02:47:44;1.67;;;1.67;;
20844;SDS011;10583;49.084;8.646;2024-02-15T02:50:12;1.50;;;1.50;;
20844;SDS011;10583;49.084;8.646;2024-02-15T02:52:39;1.43;;;1.43;;
20844;SDS011;10583;49.084;8.646;2024-02-15T02:55:06;1.60;;;1.60;;
20844;SDS011;10583;49.084;8.646;2024-02-15T02:57:34;1.70;;;1.70;;
20844;SDS011;10583;49.084;8.646;2024-02-15T03:00:03;1.73;;;1.73;;
20844;SDS011;10583;49.084;8.646;2024-02-15T03:02:33;1.90;;;1.90;;
20844;SDS011;10583;49.084;8.646;2024-02-15T03:05:01;1.90;;;1.90;;
20844;SDS011;10583;49.084;8.646;2024-02-15T03:07:32;2.30;;;2.30;;
20844;SDS011;10583;49.084;8.646;2024-02-15T03:09:59;2.30;;;2.30;;
20844;SDS011;10583;49.084;8.646;2024-02-15T03:12:26;2.50;;;2.50;;
20844;SDS011;10583;49.084;8.646;2024-02-15T03:14:55;3.20;;;3.20;;
20844;SDS011;10583;49.084;8.646;2024-02-15T03:17:24;3.10;;;3.10;;
20844;SDS011;10583;49.084;8.646;2024-02-15T03:19:51;3.10;;;3.10;;
20844;SDS011;10583;49.084;8.646;2024-02-15T03:22:18;3.20;;;3.20;;
20844;SDS011;10583;49.084;8.646;2024-02-15T03:24:45;3.10;;;3.10;;
20844;SDS011;10583;49.084;8.646;2024-02-15T03:27:13;4.13;;;4.13;;
20844;SDS011;10583;49.084;8.646;2024-02-15T03:29:40;3.63;;;3.63;;
20844;SDS011;10583;49.084;8.646;2024-02-15T03:32:07;3.07;;;3.07;;
20844;SDS011;10583;49.084;8.646;2024-02-15T03:34:36;2.90;;;2.90;;
20844;SDS011;10583;49.084;8.646;2024-02-15T03:37:04;3.10;;;3.10;;
20844;SDS011;10583;49.084;8.646;2024-02-15T03:39:31;3.70;;;3.70;;
20844;SDS011;10583;49.084;8.646;2024-02-15T03:41:58;3.20;;;3.20;;
20844;SDS011;10583;49.084;8.646;2024-02-15T03:44:25;3.20;;;3.20;;
20844;SDS011;10583;49.084;8.646;2024-02-15T03:46:52;3.33;;;3.33;;
20844;SDS011;10583;49.084;8.646;2024-02-15T03:49:20;3.63;;;3.63;;
20844;SDS011;10583;49.084;8.646;2024-02-15T03:51:49;3.40;;;3.40;;
20844;SDS011;10583;49.084;8.646;2024-02-15T03:54:16;3.20;;;3.20;;
20844;SDS011;10583;49.084;8.646;2024-02-15T03:56:47;2.90;;;2.90;;
20844;SDS011;10583;49.084;8.646;2024-02-15T03:59:18;3.00;;;3.00;;
20844;SDS011;10583;49.084;8.646;2024-02-15T04:01:50;3.37;;;3.37;;
20844;SDS011;10583;49.084;8.646;2024-02-15T04:04:17;3.20;;;3.20;;
20844;SDS011;10583;49.084;8.646;2024-02-15T04:06:46;3.30;;;3.30;;
20844;SDS011;10583;49.084;8.646;2024-02-15T04:09:14;3.23;;;3.23;;
20844;SDS011;10583;49.084;8.646;2024-02-15T04:11:42;2.83;;;2.83;;
20844;SDS011;10583;49.084;8.646;2024-02-15T04:14:09;3.13;;;3.13;;
20844;SDS011;10583;49.084;8.646;2024-02-15T04:16:36;2.90;;;2.90;;
20844;SDS011;10583;49.084;8.646;2024-02-15T04:19:03;3.27;;;3.27;;
20844;SDS011;10583;49.084;8.646;2024-02-15T04:21:30;3.33;;;3.33;;
20844;SDS011;10583;49.084;8.646;2024-02-15T04:23:58;3.50;;;3.50;;
20844;SDS011;10583;49.084;8.646;2024-02-15T04:26:26;3.33;;;3.33;;
20844;SDS011;10583;49.084;8.646;2024-02-15T04:28:55;3.63;;;3.63;;
20844;SDS011;10583;49.084;8.646;2024-02-15T04:31:23;3.37;;;3.37;;
20844;SDS011;10583;49.084;8.646;2024-02-15T04:33:51;2.87;;;2.87;;
20844;SDS011;10583;49.084;8.646;2024-02-15T04:36:19;3.17;;;3.17;;
20844;SDS011;10583;49.084;8.646;2024-02-15T04:38:49;2.93;;;2.93;;
20844;SDS011;10583;49.084;8.646;2024-02-15T04:41:16;2.80;;;2.80;;
20844;SDS011;10583;49.084;8.646;2024-02-15T04:43:49;3.03;;;3.03;;
20844;SDS011;10583;49.084;8.646;2024-02-15T04:46:16;2.70;;;2.70;;
20844;SDS011;10583;49.084;8.646;2024-02-15T04:48:45;3.37;;;3.37;;
20844;SDS011;10583;49.084;8.646;2024-02-15T04:51:14;3.07;;;3.07;;
20844;SDS011;10583;49.084;8.646;2024-02-15T04:53:42;2.80;;;2.80;;
20844;SDS011;10583;49.084;8.646;2024-02-15T04:56:11;3.10;;;3.10;;
20844;SDS011;10583;49.084;8.646;2024-02-15T04:58:40;2.90;;;2.90;;
20844;SDS011;10583;49.084;8.646;2024-02-15T05:01:13;2.93;;;2.93;;
20844;SDS011;10583;49.084;8.646;2024-02-15T05:03:41;2.93;;;2.93;;
20844;SDS011;10583;49.084;8.646;2024-02-15T05:06:09;3.10;;;3.10;;
20844;SDS011;10583;49.084;8.646;2024-02-15T05:08:38;2.20;;;2.20;;
20844;SDS011;10583;49.084;8.646;2024-02-15T05:11:07;2.77;;;2.77;;
20844;SDS011;10583;49.084;8.646;2024-02-15T05:13:40;2.97;;;2.97;;
20844;SDS011;10583;49.084;8.646;2024-02-15T05:16:07;2.97;;;2.97;;
20844;SDS011;10583;49.084;8.646;2024-02-15T05:18:35;2.60;;;2.60;;
20844;SDS011;10583;49.084;8.646;2024-02-15T05:21:03;2.70;;;2.70;;
20844;SDS011;10583;49.084;8.646;2024-02-15T05:23:34;2.87;;;2.87;;
20844;SDS011;10583;49.084;8.646;2024-02-15T05:26:01;3.20;;;3.20;;
20844;SDS011;10583;49.084;8.646;2024-02-15T05:28:29;2.93;;;2.93;;
20844;SDS011;10583;49.084;8.646;2024-02-15T05:33:43;3.03;;;3.03;;
20844;SDS011;10583;49.084;8.646;2024-02-15T05:36:12;2.77;;;2.77;;
20844;SDS011;10583;49.084;8.646;2024-02-15T05:38:40;2.97;;;2.97;;
20844;SDS011;10583;49.084;8.646;2024-02-15T05:41:10;2.53;;;2.53;;
20844;SDS011;10583;49.084;8.646;2024-02-15T05:43:38;2.83;;;2.83;;
20844;SDS011;10583;49.084;8.646;2024-02-15T05:46:07;2.60;;;2.60;;
20844;SDS011;10583;49.084;8.646;2024-02-15T05:48:34;2.73;;;2.73;;
20844;SDS011;10583;49.084;8.646;2024-02-15T05:51:04;3.13;;;3.13;;
20844;SDS011;10583;49.084;8.646;2024-02-15T05:53:32;3.60;;;3.60;;
20844;SDS011;10583;49.084;8.646;2024-02-15T05:56:01;3.70;;;3.70;;
20844;SDS011;10583;49.084;8.646;2024-02-15T05:58:29;3.40;;;3.40;;
20844;SDS011;10583;49.084;8.646;2024-02-15T06:00:56;3.67;;;3.67;;
20844;SDS011;10583;49.084;8.646;2024-02-15T06:03:26;3.73;;;3.73;;
20844;SDS011;10583;49.084;8.646;2024-02-15T06:05:53;3.57;;;3.57;;
20844;SDS011;10583;49.084;8.646;2024-02-15T06:08:25;3.60;;;3.60;;
20844;SDS011;10583;49.084;8.646;2024-02-15T06:10:52;3.43;;;3.43;;
20844;SDS011;10583;49.084;8.646;2024-02-15T06:13:20;3.20;;;3.20;;
20844;SDS011;10583;49.084;8.646;2024-02-15T06:15:48;3.47;;;3.47;;
20844;SDS011;10583;49.084;8.646;2024-02-15T06:18:18;3.03;;;3.03;;
20844;SDS011;10583;49.084;8.646;2024-02-15T06:20:46;3.07;;;3.07;;
20844;SDS011;10583;49.084;8.646;2024-02-15T06:23:15;3.23;;;3.23;;
20844;SDS011;10583;49.084;8.646;2024-02-15T06:25:44;3.10;;;3.10;;
20844;SDS011;10583;49.084;8.646;2024-02-15T06:28:12;2.90;;;2.90;;
20844;SDS011;10583;49.084;8.646;2024-02-15T06:31:00;2.83;;;2.83;;
20844;SDS011;10583;49.084;8.646;2024-02-15T06:33:44;2.73;;;2.73;;
20844;SDS011;10583;49.084;8.646;2024-02-15T06:36:28;3.07;;;3.07;;
20844;SDS011;10583;49.084;8.646;2024-02-15T06:39:13;3.20;;;3.20;;
20844;SDS011;10583;49.084;8.646;2024-02-15T06:41:59;3.00;;;3.00;;
20844;SDS011;10583;49.084;8.646;2024-02-15T06:44:27;3.50;;;3.50;;
20844;SDS011;10583;49.084;8.646;2024-02-15T06:46:54;3.43;;;3.43;;
20844;SDS011;10583;49.084;8.646;2024-02-15T06:49:22;4.00;;;4.00;;
20844;SDS011;10583;49.084;8.646;2024-02-15T06:51:49;3.70;;;3.70;;
20844;SDS011;10583;49.084;8.646;2024-02-15T06:54:17;3.57;;;3.57;;
20844;SDS011;10583;49.084;8.646;2024-02-15T06:56:44;3.50;;;3.50;;
20844;SDS011;10583;49.084;8.646;2024-02-15T06:59:13;3.03;;;3.03;;
20844;SDS011;10583;49.084;8.646;2024-02-15T07:01:41;2.83;;;2.83;;
20844;SDS011;10583;49.084;8.646;2024-02-15T07:04:08;2.93;;;2.93;;
20844;SDS011;10583;49.084;8.646;2024-02-15T07:06:36;3.33;;;3.33;;
20844;SDS011;10583;49.084;8.646;2024-02-15T07:09:04;2.80;;;2.80;;
20844;SDS011;10583;49.084;8.646;2024-02-15T07:11:31;2.83;;;2.83;;
20844;SDS011;10583;49.084;8.646;2024-02-15T07:13:59;2.87;;;2.87;;
20844;SDS011;10583;49.084;8.646;2024-02-15T07:16:28;2.67;;;2.67;;
20844;SDS011;10583;49.084;8.646;2024-02-15T07:18:55;2.90;;;2.90;;
20844;SDS011;10583;49.084;8.646;2024-02-15T07:21:22;3.33;;;3.33;;
20844;SDS011;10583;49.084;8.646;2024-02-15T07:23:52;2.97;;;2.97;;
20844;SDS011;10583;49.084;8.646;2024-02-15T07:26:21;2.97;;;2.97;;
20844;SDS011;10583;49.084;8.646;2024-02-15T07:28:50;3.00;;;3.00;;
20844;SDS011;10583;49.084;8.646;2024-02-15T07:31:18;3.20;;;3.20;;
20844;SDS011;10583;49.084;8.646;2024-02-15T07:33:47;2.50;;;2.50;;
20844;SDS011;10583;49.084;8.646;2024-02-15T07:36:17;2.77;;;2.77;;
20844;SDS011;10583;49.084;8.646;2024-02-15T07:38:46;2.80;;;2.80;;
20844;SDS011;10583;49.084;8.646;2024-02-15T07:41:13;2.90;;;2.90;;
20844;SDS011;10583;49.084;8.646;2024-02-15T07:43:40;2.73;;;2.73;;
20844;SDS011;10583;49.084;8.646;2024-02-15T07:46:11;2.97;;;2.97;;
20844;SDS011;10583;49.084;8.646;2024-02-15T07:48:39;2.63;;;2.63;;
20844;SDS011;10583;49.084;8.646;2024-02-15T07:51:11;2.60;;;2.60;;
20844;SDS011;10583;49.084;8.646;2024-02-15T07:53:40;2.70;;;2.70;;
20844;SDS011;10583;49.084;8.646;2024-02-15T07:56:07;2.80;;;2.80;;
20844;SDS011;10583;49.084;8.646;2024-02-15T07:58:37;2.60;;;2.60;;
20844;SDS011;10583;49.084;8.646;2024-02-15T08:01:06;2.30;;;2.30;;
20844;SDS011;10583;49.084;8.646;2024-02-15T08:03:34;2.20;;;2.20;;
20844;SDS011;10583;49.084;8.646;2024-02-15T08:06:01;2.30;;;2.30;;
20844;SDS011;10583;49.084;8.646;2024-02-15T08:08:33;3.00;;;3.00;;
20844;SDS011;10583;49.084;8.646;2024-02-15T08:11:01;2.87;;;2.87;;
20844;SDS011;10583;49.084;8.646;2024-02-15T08:13:29;3.27;;;3.27;;
20844;SDS011;10583;49.084;8.646;2024-02-15T08:15:56;3.13;;;3.13;;
20844;SDS011;10583;49.084;8.646;2024-02-15T08:18:23;3.17;;;3.17;;
20844;SDS011;10583;49.084;8.646;2024-02-15T08:20:51;5.17;;;5.17;;
20844;SDS011;10583;49.084;8.646;2024-02-15T08:23:18;4.00;;;4.00;;
20844;SDS011;10583;49.084;8.646;2024-02-15T08:25:46;4.10;;;4.10;;
20844;SDS011;10583;49.084;8.646;2024-02-15T08:28:12;5.57;;;5.57;;
20844;SDS011;10583;49.084;8.646;2024-02-15T08:30:40;4.30;;;4.30;;
20844;SDS011;10583;49.084;8.646;2024-02-15T08:33:06;5.40;;;5.40;;
20844;SDS011;10583;49.084;8.646;2024-02-15T08:35:35;5.27;;;5.27;;
20844;SDS011;10583;49.084;8.646;2024-02-15T08:38:03;5.50;;;5.50;;
20844;SDS011;10583;49.084;8.646;2024-02-15T08:40:30;5.80;;;5.80;;
20844;SDS011;10583;49.084;8.646;2024-02-15T08:42:59;4.60;;;4.60;;
20844;SDS011;10583;49.084;8.646;2024-02-15T08:45:25;4.13;;;4.13;;
20844;SDS011;10583;49.084;8.646;2024-02-15T08:47:52;4.20;;;4.20;;
20844;SDS011;10583;49.084;8.646;2024-02-15T08:50:19;4.40;;;4.40;;
20844;SDS011;10583;49.084;8.646;2024-02-15T08:52:48;2.80;;;2.80;;
20844;SDS011;10583;49.084;8.646;2024-02-15T08:55:15;3.17;;;3.17;;
20844;SDS011;10583;49.084;8.646;2024-02-15T08:57:42;2.80;;;2.80;;
20844;SDS011;10583;49.084;8.646;2024-02-15T09:00:12;2.20;;;2.20;;
20844;SDS011;10583;49.084;8.646;2024-02-15T09:02:41;2.30;;;2.30;;
20844;SDS011;10583;49.084;8.646;2024-02-15T09:05:08;2.37;;;2.37;;
20844;SDS011;10583;49.084;8.646;2024-02-15T09:07:35;2.30;;;2.30;;
20844;SDS011;10583;49.084;8.646;2024-02-15T09:10:02;2.60;;;2.60;;
20844;SDS011;10583;49.084;8.646;2024-02-15T09:12:32;2.30;;;2.30;;
20844;SDS011;10583;49.084;8.646;2024-02-15T09:14:59;2.00;;;2.00;;
20844;SDS011;10583;49.084;8.646;2024-02-15T09:17:27;1.70;;;1.70;;
20844;SDS011;10583;49.084;8.646;2024-02-15T09:19:57;1.80;;;1.80;;
20844;SDS011;10583;49.084;8.646;2024-02-15T09:22:24;1.80;;;1.80;;
20844;SDS011;10583;49.084;8.646;2024-02-15T09:24:52;1.70;;;1.70;;
20844;SDS011;10583;49.084;8.646;2024-02-15T09:27:18;1.63;;;1.63;;
20844;SDS011;10583;49.084;8.646;2024-02-15T09:29:46;1.60;;;1.60;;
20844;SDS011;10583;49.084;8.646;2024-02-15T09:32:12;1.40;;;1.40;;
20844;SDS011;10583;49.084;8.646;2024-02-15T09:34:41;1.63;;;1.63;;
20844;SDS011;10583;49.084;8.646;2024-02-15T09:37:07;1.30;;;1.30;;
20844;SDS011;10583;49.084;8.646;2024-02-15T09:39:34;1.47;;;1.47;;
20844;SDS011;10583;49.084;8.646;2024-02-15T09:42:03;1.57;;;1.57;;
20844;SDS011;10583;49.084;8.646;2024-02-15T09:44:30;1.50;;;1.50;;
20844;SDS011;10583;49.084;8.646;2024-02-15T09:47:00;1.20;;;1.20;;
20844;SDS011;10583;49.084;8.646;2024-02-15T09:49:32;1.03;;;1.03;;
20844;SDS011;10583;49.084;8.646;2024-02-15T09:52:03;1.40;;;1.40;;
20844;SDS011;10583;49.084;8.646;2024-02-15T09:54:36;0.90;;;0.90;;
20844;SDS011;10583;49.084;8.646;2024-02-15T09:57:06;1.20;;;1.20;;
20844;SDS011;10583;49.084;8.646;2024-02-15T09:59:34;1.10;;;1.10;;
20844;SDS011;10583;49.084;8.646;2024-02-15T10:02:01;1.20;;;1.20;;
20844;SDS011;10583;49.084;8.646;2024-02-15T10:04:28;1.27;;;1.27;;
20844;SDS011;10583;49.084;8.646;2024-02-15T10:06:55;1.20;;;1.20;;
20844;SDS011;10583;49.084;8.646;2024-02-15T10:09:24;1.23;;;1.23;;
20844;SDS011;10583;49.084;8.646;2024-02-15T10:11:53;1.20;;;1.20;;
20844;SDS011;10583;49.084;8.646;2024-02-15T10:14:21;1.17;;;1.17;;
20844;SDS011;10583;49.084;8.646;2024-02-15T10:16:48;0.97;;;0.97;;
20844;SDS011;10583;49.084;8.646;2024-02-15T10:19:15;1.20;;;1.20;;
20844;SDS011;10583;49.084;8.646;2024-02-15T10:21:43;1.00;;;1.00;;
20844;SDS011;10583;49.084;8.646;2024-02-15T10:24:10;0.93;;;0.93;;
20844;SDS011;10583;49.084;8.646;2024-02-15T10:26:39;1.30;;;1.30;;
20844;SDS011;10583;49.084;8.646;2024-02-15T10:29:06;1.20;;;1.20;;
20844;SDS011;10583;49.084;8.646;2024-02-15T10:31:34;1.10;;;1.10;;
20844;SDS011;10583;49.084;8.646;2024-02-15T10:34:04;1.20;;;1.20;;
20844;SDS011;10583;49.084;8.646;2024-02-15T10:36:32;1.03;;;1.03;;
20844;SDS011;10583;49.084;8.646;2024-02-15T10:39:16;0.90;;;0.90;;
20844;SDS011;10583;49.084;8.646;2024-02-15T10:41:46;1.00;;;1.00;;
20844;SDS011;10583;49.084;8.646;2024-02-15T10:44:15;0.90;;;0.90;;
20844;SDS011;10583;49.084;8.646;2024-02-15T10:46:44;0.83;;;0.83;;
20844;SDS011;10583;49.084;8.646;2024-02-15T10:49:15;1.10;;;1.10;;
20844;SDS011;10583;49.084;8.646;2024-02-15T10:51:43;1.07;;;1.07;;
20844;SDS011;10583;49.084;8.646;2024-02-15T10:54:11;0.70;;;0.70;;
20844;SDS011;10583;49.084;8.646;2024-02-15T10:56:42;1.00;;;1.00;;
20844;SDS011;10583;49.084;8.646;2024-02-15T10:59:16;0.80;;;0.80;;
20844;SDS011;10583;49.084;8.646;2024-02-15T11:01:45;0.83;;;0.83;;
20844;SDS011;10583;49.084;8.646;2024-02-15T11:04:14;0.73;;;0.73;;
20844;SDS011;10583;49.084;8.646;2024-02-15T11:06:42;0.90;;;0.90;;
20844;SDS011;10583;49.084;8.646;2024-02-15T11:09:09;0.97;;;0.97;;
20844;SDS011;10583;49.084;8.646;2024-02-15T11:11:41;0.73;;;0.73;;
20844;SDS011;10583;49.084;8.646;2024-02-15T11:14:26;0.80;;;0.80;;
20844;SDS011;10583;49.084;8.646;2024-02-15T11:16:55;0.90;;;0.90;;
20844;SDS011;10583;49.084;8.646;2024-02-15T11:22:14;1.20;;;1.20;;
20844;SDS011;10583;49.084;8.646;2024-02-15T11:24:47;0.80;;;0.80;;
20844;SDS011;10583;49.084;8.646;2024-02-15T11:27:25;0.97;;;0.97;;
20844;SDS011;10583;49.084;8.646;2024-02-15T11:29:58;1.00;;;1.00;;
20844;SDS011;10583;49.084;8.646;2024-02-15T11:32:36;0.87;;;0.87;;
20844;SDS011;10583;49.084;8.646;2024-02-15T11:35:04;0.90;;;0.90;;
20844;SDS011;10583;49.084;8.646;2024-02-15T11:40:28;0.67;;;0.67;;
20844;SDS011;10583;49.084;8.646;2024-02-15T11:47:12;0.90;;;0.90;;
20844;SDS011;10583;49.084;8.646;2024-02-15T11:49:39;0.90;;;0.90;;
20844;SDS011;10583;49.084;8.646;2024-02-15T11:52:08;1.10;;;1.10;;
20844;SDS011;10583;49.084;8.646;2024-02-15T11:54:39;0.80;;;0.80;;
20844;SDS011;10583;49.084;8.646;2024-02-15T11:57:08;1.03;;;1.03;;
20844;SDS011;10583;49.084;8.646;2024-02-15T11:59:41;0.80;;;0.80;;
20844;SDS011;10583;49.084;8.646;2024-02-15T12:02:20;1.00;;;1.00;;
20844;SDS011;10583;49.084;8.646;2024-02-15T12:05:04;1.00;;;1.00;;
20844;SDS011;10583;49.084;8.646;2024-02-15T12:07:49;1.17;;;1.17;;
20844;SDS011;10583;49.084;8.646;2024-02-15T12:10:30;1.00;;;1.00;;
20844;SDS011;10583;49.084;8.646;2024-02-15T12:13:17;1.10;;;1.10;;
20844;SDS011;10583;49.084;8.646;2024-02-15T12:16:01;1.10;;;1.10;;
20844;SDS011;10583;49.084;8.646;2024-02-15T12:18:49;1.07;;;1.07;;
20844;SDS011;10583;49.084;8.646;2024-02-15T12:21:19;1.13;;;1.13;;
20844;SDS011;10583;49.084;8.646;2024-02-15T12:23:50;0.70;;;0.70;;
20844;SDS011;10583;49.084;8.646;2024-02-15T12:26:18;1.13;;;1.13;;
20844;SDS011;10583;49.084;8.646;2024-02-15T12:28:49;1.00;;;1.00;;
20844;SDS011;10583;49.084;8.646;2024-02-15T12:31:17;1.07;;;1.07;;
20844;SDS011;10583;49.084;8.646;2024-02-15T12:33:44;1.10;;;1.10;;
20844;SDS011;10583;49.084;8.646;2024-02-15T12:36:13;0.90;;;0.90;;
20844;SDS011;10583;49.084;8.646;2024-02-15T12:38:42;1.00;;;1.00;;
20844;SDS011;10583;49.084;8.646;2024-02-15T12:41:19;1.00;;;1.00;;
20844;SDS011;10583;49.084;8.646;2024-02-15T12:43:46;0.90;;;0.90;;
20844;SDS011;10583;49.084;8.646;2024-02-15T12:46:18;0.77;;;0.77;;
20844;SDS011;10583;49.084;8.646;2024-02-15T12:48:45;1.00;;;1.00;;
20844;SDS011;10583;49.084;8.646;2024-02-15T12:51:16;0.90;;;0.90;;
20844;SDS011;10583;49.084;8.646;2024-02-15T12:53:43;0.80;;;0.80;;
20844;SDS011;10583;49.084;8.646;2024-02-15T12:56:10;1.00;;;1.00;;
20844;SDS011;10583;49.084;8.646;2024-02-15T12:58:46;0.90;;;0.90;;
20844;SDS011;10583;49.084;8.646;2024-02-15T13:01:13;1.00;;;1.00;;
20844;SDS011;10583;49.084;8.646;2024-02-15T13:03:41;1.03;;;1.03;;
20844;SDS011;10583;49.084;8.646;2024-02-15T13:06:08;1.00;;;1.00;;
20844;SDS011;10583;49.084;8.646;2024-02-15T13:08:36;0.90;;;0.90;;
20844;SDS011;10583;49.084;8.646;2024-02-15T13:11:03;0.90;;;0.90;;
20844;SDS011;10583;49.084;8.646;2024-02-15T13:13:29;0.80;;;0.80;;
20844;SDS011;10583;49.084;8.646;2024-02-15T13:15:56;1.00;;;1.00;;
20844;SDS011;10583;49.084;8.646;2024-02-15T13:18:23;0.83;;;0.83;;
20844;SDS011;10583;49.084;8.646;2024-02-15T13:20:53;1.10;;;1.10;;
20844;SDS011;10583;49.084;8.646;2024-02-15T13:23:20;0.90;;;0.90;;
20844;SDS011;10583;49.084;8.646;2024-02-15T13:25:51;0.80;;;0.80;;
20844;SDS011;10583;49.084;8.646;2024-02-15T13:28:18;0.90;;;0.90;;
20844;SDS011;10583;49.084;8.646;2024-02-15T13:30:45;0.83;;;0.83;;
20844;SDS011;10583;49.084;8.646;2024-02-15T13:33:14;1.00;;;1.00;;
20844;SDS011;10583;49.084;8.646;2024-02-15T13:35:41;0.80;;;0.80;;
20844;SDS011;10583;49.084;8.646;2024-02-15T13:38:08;1.10;;;1.10;;
20844;SDS011;10583;49.084;8.646;2024-02-15T13:40:39;0.67;;;0.67;;
20844;SDS011;10583;49.084;8.646;2024-02-15T13:43:08;1.00;;;1.00;;
20844;SDS011;10583;49.084;8.646;2024-02-15T13:45:38;0.90;;;0.90;;
20844;SDS011;10583;49.084;8.646;2024-02-15T13:48:05;1.00;;;1.00;;
20844;SDS011;10583;49.084;8.646;2024-02-15T13:50:33;0.83;;;0.83;;
20844;SDS011;10583;49.084;8.646;2024-02-15T13:53:01;0.90;;;0.90;;
20844;SDS011;10583;49.084;8.646;2024-02-15T13:55:29;0.70;;;0.70;;
20844;SDS011;10583;49.084;8.646;2024-02-15T13:57:56;1.03;;;1.03;;
20844;SDS011;10583;49.084;8.646;2024-02-15T14:00:25;0.60;;;0.60;;
20844;SDS011;10583;49.084;8.646;2024-02-15T14:02:55;0.90;;;0.90;;
20844;SDS011;10583;49.084;8.646;2024-02-15T14:05:24;0.90;;;0.90;;
20844;SDS011;10583;49.084;8.646;2024-02-15T14:07:54;1.30;;;1.30;;
20844;SDS011;10583;49.084;8.646;2024-02-15T14:10:22;0.90;;;0.90;;
20844;SDS011;10583;49.084;8.646;2024-02-15T14:12:50;0.97;;;0.97;;
20844;SDS011;10583;49.084;8.646;2024-02-15T14:15:18;0.83;;;0.83;;
20844;SDS011;10583;49.084;8.646;2024-02-15T14:17:46;1.10;;;1.10;;
20844;SDS011;10583;49.084;8.646;2024-02-15T14:20:13;1.20;;;1.20;;
20844;SDS011;10583;49.084;8.646;2024-02-15T14:22:40;0.83;;;0.83;;
20844;SDS011;10583;49.084;8.646;2024-02-15T14:25:09;0.93;;;0.93;;
20844;SDS011;10583;49.084;8.646;2024-02-15T14:27:37;1.00;;;1.00;;
20844;SDS011;10583;49.084;8.646;2024-02-15T14:30:05;0.97;;;0.97;;
20844;SDS011;10583;49.084;8.646;2024-02-15T14:32:52;1.00;;;1.00;;
20844;SDS011;10583;49.084;8.646;2024-02-15T14:35:33;1.03;;;1.03;;
20844;SDS011;10583;49.084;8.646;2024-02-15T14:38:02;1.23;;;1.23;;
20844;SDS011;10583;49.084;8.646;2024-02-15T14:40:32;1.20;;;1.20;;
20844;SDS011;10583;49.084;8.646;2024-02-15T14:42:59;0.90;;;0.90;;
20844;SDS011;10583;49.084;8.646;2024-02-15T14:45:26;0.90;;;0.90;;
20844;SDS011;10583;49.084;8.646;2024-02-15T14:47:55;0.80;;;0.80;;
20844;SDS011;10583;49.084;8.646;2024-02-15T14:50:21;0.83;;;0.83;;
20844;SDS011;10583;49.084;8.646;2024-02-15T14:52:49;1.07;;;1.07;;
20844;SDS011;10583;49.084;8.646;2024-02-15T14:55:16;0.90;;;0.90;;
20844;SDS011;10583;49.084;8.646;2024-02-15T14:57:44;0.90;;;0.90;;
20844;SDS011;10583;49.084;8.646;2024-02-15T15:00:11;0.80;;;0.80;;
20844;SDS011;10583;49.084;8.646;2024-02-15T15:02:39;1.00;;;1.00;;
20844;SDS011;10583;49.084;8.646;2024-02-15T15:05:08;0.80;;;0.80;;
20844;SDS011;10583;49.084;8.646;2024-02-15T15:07:52;1.10;;;1.10;;
20844;SDS011;10583;49.084;8.646;2024-02-15T15:10:37;1.00;;;1.00;;
20844;SDS011;10583;49.084;8.646;2024-02-15T15:13:21;0.80;;;0.80;;